createdAt,value
2022-10-26T00:11:27.372Z,98469.84
2022-10-26T00:31:30.821Z,98472.69
2022-10-26T00:51:34.160Z,98474.22
2022-10-26T01:53:11.274Z,98473.88
2022-10-26T02:33:53.368Z,98477.84
2022-10-26T02:54:16.405Z,98485.06
2022-10-26T03:14:19.962Z,98493.81
2022-10-26T04:14:59.159Z,98508.00
2022-10-26T04:35:01.776Z,98511.03
2022-10-26T04:55:07.160Z,98509.63
2022-10-26T05:15:09.728Z,98522.03
2022-10-26T05:35:12.282Z,98518.66
2022-10-26T05:55:15.076Z,98536.06
2022-10-26T06:15:18.566Z,98544.38
2022-10-26T06:35:21.566Z,98551.31
2022-10-26T06:55:24.077Z,98567.03
2022-10-26T07:15:26.784Z,98588.94
2022-10-26T07:35:30.475Z,98596.38
2022-10-26T07:55:34.081Z,98616.66
2022-10-26T08:15:36.742Z,98612.72
2022-10-26T08:35:39.335Z,98606.81
2022-10-26T08:55:44.966Z,98599.00
2022-10-26T09:15:47.745Z,98595.28
2022-10-26T09:35:51.206Z,98589.53
2022-10-26T09:55:53.720Z,98593.50
2022-10-26T10:15:56.392Z,98597.09
2022-10-26T10:35:58.818Z,98605.47
2022-10-26T10:56:01.548Z,98591.84
2022-10-26T11:16:04.327Z,98590.06
2022-10-26T11:36:06.854Z,98588.53
2022-10-26T11:56:09.562Z,98592.63
2022-10-26T12:16:12.307Z,98590.47
2022-10-26T12:36:14.770Z,98588.16
2022-10-26T12:56:17.419Z,98582.63
2022-10-26T13:16:20.215Z,98575.34
2022-10-26T13:36:23.698Z,98574.72
2022-10-26T13:56:26.363Z,98584.25
2022-10-26T14:16:29.071Z,98586.38
2022-10-26T14:36:31.725Z,98588.53
2022-10-26T14:56:34.278Z,98590.03
2022-10-26T15:16:37.181Z,98600.91
2022-10-26T15:36:39.897Z,98611.47
2022-10-26T15:56:44.722Z,98620.97
2022-10-26T16:16:47.234Z,98649.16
2022-10-26T16:36:49.800Z,98654.53
2022-10-26T16:56:52.446Z,98670.78
2022-10-26T17:16:55.173Z,98683.66
2022-10-26T17:36:57.671Z,98687.00
2022-10-26T17:57:00.344Z,98716.47
2022-10-26T18:17:02.870Z,98740.12
2022-10-26T18:37:05.341Z,98759.19
2022-10-26T18:57:08.026Z,98777.69
2022-10-26T19:17:11.578Z,98796.87
2022-10-26T19:37:14.726Z,98810.59
2022-10-26T19:57:17.400Z,98824.44
2022-10-26T20:17:20.907Z,98846.75
2022-10-26T20:37:25.605Z,98869.91
2022-10-26T20:57:28.229Z,98876.66
2022-10-26T21:17:30.904Z,98889.94
2022-10-26T21:58:10.749Z,98912.91
2022-10-26T22:18:13.296Z,98917.34
2022-10-26T22:38:15.774Z,98913.06
2022-10-26T22:58:18.425Z,98924.69
2022-10-26T23:18:20.974Z,98948.31
2022-10-26T23:38:23.437Z,98947.56
2022-10-26T23:58:26.243Z,98947.97
